Home > Products > Valid Products > MTR

000
SAUS46 KSGX 230053
MTRCZZ
METAR KCZZ 230052Z AUTO 24013KT 12/08 A3000 RMK AO1 SLP144 T01170078





000
SAUS46 KSGX 222353
MTRCZZ
METAR KCZZ 222352Z AUTO 23012G20KT 12/07 A3000 RMK AO1 SLP142
T01220072 10133 20117 55002





000
SAUS46 KSGX 222253
MTRCZZ
METAR KCZZ 222252Z AUTO 24019G24KT 13/07 A2998 RMK AO1 SLP137
T01280067





000
SAUS46 KSGX 222153
MTRCZZ
METAR KCZZ 222152Z AUTO 29013KT 12/07 A3000 RMK AO1 SLP143 T01220072





000
SAUS46 KSGX 222153
MTRCZZ
METAR KCZZ 222152Z AUTO 29013KT 12/07 A3000 RMK AO1 SLP143 T01220072





000
SAUS46 KSGX 222053
MTRCZZ
METAR KCZZ 222052Z AUTO 28007KT 13/06 A3000 RMK AO1 SLP143 T01280061
58002





000
SAUS46 KSGX 221953
MTRCZZ
METAR KCZZ 221952Z AUTO 28014G19KT 12/06 A3000 RMK AO1 SLP145
T01220061





000
SAUS46 KSGX 221953
MTRCZZ
METAR KCZZ 221952Z AUTO 28014G19KT 12/06 A3000 RMK AO1 SLP145
T01220061





000
SAUS46 KSGX 221853
MTRCZZ
METAR KCZZ 221852Z AUTO 27009G18KT 12/06 A3001 RMK AO1 SLP149
T01170061





000
SAUS46 KSGX 221853
MTRCZZ
METAR KCZZ 221852Z AUTO 27009G18KT 12/06 A3001 RMK AO1 SLP149
T01170061





000
SAUS46 KSGX 221753
MTRCZZ
METAR KCZZ 221752Z AUTO 28013KT 12/07 A3001 RMK AO1 SLP146 P0001
60001 T01170072 10117 20089 51009





000
SAUS46 KSGX 221753
MTRCZZ
METAR KCZZ 221752Z AUTO 28013KT 12/07 A3001 RMK AO1 SLP146 P0001
60001 T01170072 10117 20089 51009





000
SAUS46 KSGX 221653
MTRCZZ
METAR KCZZ 221652Z AUTO 26009KT 10/07 A3001 RMK AO1 SLP149 T01000067





000
SAUS46 KSGX 221553
MTRCZZ
METAR KCZZ 221552Z AUTO 25012KT 10/07 A3000 RMK AO1 SLP143 T01000067





000
SAUS46 KSGX 221453
MTRCZZ
METAR KCZZ 221452Z AUTO 25014G21KT 09/06 A2998 RMK AO1 SLP136
T00940061 51008





000
SAUS46 KSGX 221353
MTRCZZ
METAR KCZZ 221352Z AUTO 25012G18KT 09/06 A2997 RMK AO1 SLP135
T00890061





000
SAUS46 KSGX 221253
MTRCZZ
METAR KCZZ 221252Z AUTO 25010KT 09/06 A2996 RMK AO1 SLP129 T00890061





000
SAUS46 KSGX 221253
MTRCZZ
METAR KCZZ 221252Z AUTO 25010KT 09/06 A2996 RMK AO1 SLP129 T00890061





000
SAUS46 KSGX 221153
MTRCZZ
METAR KCZZ 221152Z AUTO 25012G17KT 09/06 A2995 RMK AO1 SLP125
T00890061 10094 20089 55000





000
SAUS46 KSGX 221153
MTRCZZ
METAR KCZZ 221152Z AUTO 25012G17KT 09/06 A2995 RMK AO1 SLP125
T00890061 10094 20089 55000





000
SAUS46 KSGX 221053
MTRCZZ
METAR KCZZ 221052Z AUTO 25014KT 09/06 A2995 RMK AO1 SLP125 T00890061





000
SAUS46 KSGX 220953
MTRCZZ
METAR KCZZ 220952Z AUTO 25017G23KT 09/06 A2995 RMK AO1 SLP125
T00940061





000
SAUS46 KSGX 220853
MTRCZZ
METAR KCZZ 220852Z AUTO 25010KT 09/07 A2995 RMK AO1 SLP126 T00940067
56006





000
SAUS46 KSGX 220753
MTRCZZ
METAR KCZZ 220752Z AUTO 23011KT 09/08 A2996 RMK AO1 SLP128 T00890078
401390089





000
SAUS46 KSGX 220653
MTRCZZ
METAR KCZZ 220652Z AUTO 23010KT 09/07 A2996 RMK AO1 SLP131 T00940067





000
SAUS46 KSGX 220653
MTRCZZ
METAR KCZZ 220652Z AUTO 23010KT 09/07 A2996 RMK AO1 SLP131 T00940067





000
SAUS46 KSGX 220553
MTRCZZ
METAR KCZZ 220552Z AUTO 26004KT 09/06 A2997 RMK AO1 SLP135 T00940061
10128 20089 50009





000
SAUS46 KSGX 220453
MTRCZZ
METAR KCZZ 220452Z AUTO 24006KT 09/06 A2997 RMK AO1 SLP138 T00890061





000
SAUS46 KSGX 220353
MTRCZZ
METAR KCZZ 220352Z AUTO 23014KT 09/07 A2996 RMK AO1 SLP132 T00940067





000
SAUS46 KSGX 220253
MTRCZZ
METAR KCZZ 220252Z AUTO 23013KT 11/07 A2994 RMK AO1 SLP125 T01060067
53008





000
SAUS46 KSGX 220253
MTRCZZ
METAR KCZZ 220252Z AUTO 23013KT 11/07 A2994 RMK AO1 SLP125 T01060067
53008





000
SAUS46 KSGX 220153
MTRCZZ
METAR KCZZ 220152Z AUTO 24013KT 11/07 A2993 RMK AO1 SLP119 T01110067





000
SAUS46 KSGX 220053
MTRCZZ
METAR KCZZ 220052Z AUTO 23012KT 12/06 A2992 RMK AO1 SLP114 T01220056





000
SAUS46 KSGX 212353
MTRCZZ
METAR KCZZ 212352Z AUTO 23014KT 13/06 A2992 RMK AO1 SLP115 T01280056
10139 20106 58009





000
SAUS46 KSGX 212353
MTRCZZ
METAR KCZZ 212352Z AUTO 23014KT 13/06 A2992 RMK AO1 SLP115 T01280056
10139 20106 58009





000
SAUS46 KSGX 212253
MTRCZZ
METAR KCZZ 212252Z AUTO 23015G20KT 13/05 A2993 RMK AO1 SLP118
T01280050





000
SAUS46 KSGX 212253
MTRCZZ
METAR KCZZ 212252Z AUTO 23015G20KT 13/05 A2993 RMK AO1 SLP118
T01280050





000
SAUS46 KSGX 212153
MTRCZZ
METAR KCZZ 212152Z AUTO 22013KT 13/05 A2994 RMK AO1 SLP123 T01280050





000
SAUS46 KSGX 212153
MTRCZZ
METAR KCZZ 212152Z AUTO 22013KT 13/05 A2994 RMK AO1 SLP123 T01280050





000
SAUS46 KSGX 212053
MTRCZZ
METAR KCZZ 212052Z AUTO 21013KT 12/04 A2995 RMK AO1 SLP125 T01220044
58001





000
SAUS46 KSGX 212053
MTRCZZ
METAR KCZZ 212052Z AUTO 21013KT 12/04 A2995 RMK AO1 SLP125 T01220044
58001





000
SAUS46 KSGX 211953
MTRCZZ
METAR KCZZ 211952Z AUTO 25011KT 13/05 A2995 RMK AO1 SLP126 T01330050





000
SAUS46 KSGX 211953
MTRCZZ
METAR KCZZ 211952Z AUTO 25011KT 13/05 A2995 RMK AO1 SLP126 T01330050





000
SAUS46 KSGX 211853
MTRCZZ
METAR KCZZ 211852Z AUTO 24011KT 11/06 A2995 RMK AO1 SLP128 T01110061





000
SAUS46 KSGX 211853
MTRCZZ
METAR KCZZ 211852Z AUTO 24011KT 11/06 A2995 RMK AO1 SLP128 T01110061





000
SAUS46 KSGX 211753
MTRCZZ
METAR KCZZ 211752Z AUTO 24010KT 11/07 A2995 RMK AO1 SLP127 T01060067
10106 20089 53005





000
SAUS46 KSGX 211753
MTRCZZ
METAR KCZZ 211752Z AUTO 24010KT 11/07 A2995 RMK AO1 SLP127 T01060067
10106 20089 53005





000
SAUS46 KSGX 211653
MTRCZZ
METAR KCZZ 211652Z AUTO 22013KT 09/08 A2995 RMK AO1 SLP129 T00890078





000
SAUS46 KSGX 211653
MTRCZZ
METAR KCZZ 211652Z AUTO 22013KT 09/08 A2995 RMK AO1 SLP129 T00890078





000
SAUS46 KSGX 211553
MTRCZZ
METAR KCZZ 211552Z AUTO 21009KT 09/07 A2994 RMK AO1 SLP123 T00940067





000
SAUS46 KSGX 211453
MTRCZZ
METAR KCZZ 211452Z AUTO 22009KT 09/07 A2994 RMK AO1 SLP122 T00890072
53006





000
SAUS46 KSGX 211353
MTRCZZ
METAR KCZZ 211352Z AUTO 22008KT 09/07 A2993 RMK AO1 SLP119 T00890072





000
SAUS46 KSGX 211253
MTRCZZ
METAR KCZZ 211252Z AUTO 24005KT 09/06 A2992 RMK AO1 SLP112 T00940061





000
SAUS46 KSGX 211253
MTRCZZ
METAR KCZZ 211252Z AUTO 24005KT 09/06 A2992 RMK AO1 SLP112 T00940061





000
SAUS46 KSGX 211153
MTRCZZ
METAR KCZZ 211152Z AUTO 22008KT 09/06 A2992 RMK AO1 SLP111 T00940061
10100 20094 56007





000
SAUS46 KSGX 211153
MTRCZZ
METAR KCZZ 211152Z AUTO 22008KT 09/06 A2992 RMK AO1 SLP111 T00940061
10100 20094 56007





000
SAUS46 KSGX 211053
MTRCZZ
METAR KCZZ 211052Z AUTO 26007KT 09/06 A2992 RMK AO1 SLP111 T00940056





000
SAUS46 KSGX 211053
MTRCZZ
METAR KCZZ 211052Z AUTO 26007KT 09/06 A2992 RMK AO1 SLP111 T00940056





000
SAUS46 KSGX 210953
MTRCZZ
METAR KCZZ 210952Z AUTO 23006KT 09/07 A2992 RMK AO1 SLP110 T00940067





000
SAUS46 KSGX 210853
MTRCZZ
METAR KCZZ 210852Z AUTO 22009KT 09/07 A2994 RMK AO1 SLP117 T00940067
58003





000
SAUS46 KSGX 210753
MTRCZZ
METAR KCZZ 210752Z AUTO 22007KT 09/08 A2995 RMK AO1 SLP119 T00940078
402060044





000
SAUS46 KSGX 210653
MTRCZZ
METAR KCZZ 210652Z AUTO 22009KT 09/08 A2995 RMK AO1 SLP122 T00940083





000
SAUS46 KSGX 210653
MTRCZZ
METAR KCZZ 210652Z AUTO 22009KT 09/08 A2995 RMK AO1 SLP122 T00940083





000
SAUS46 KSGX 210553
MTRCZZ
METAR KCZZ 210552Z AUTO 22008KT 10/08 A2995 RMK AO1 SLP122 T01000083
10172 20089 51007





000
SAUS46 KSGX 210553
MTRCZZ
METAR KCZZ 210552Z AUTO 22008KT 10/08 A2995 RMK AO1 SLP122 T01000083
10172 20089 51007





000
SAUS46 KSGX 210453
MTRCZZ
METAR KCZZ 210452Z AUTO 21007KT 09/08 A2994 RMK AO1 SLP123 T00890078





000
SAUS46 KSGX 210453
MTRCZZ
METAR KCZZ 210452Z AUTO 21007KT 09/08 A2994 RMK AO1 SLP123 T00890078





000
SAUS46 KSGX 210353
MTRCZZ
METAR KCZZ 210352Z AUTO 21009KT 10/08 A2994 RMK AO1 SLP121 T01000078





000
SAUS46 KSGX 210253
MTRCZZ
METAR KCZZ 210252Z AUTO 22011KT 12/08 A2993 RMK AO1 SLP118 T01170078
53005





000
SAUS46 KSGX 210153
MTRCZZ
METAR KCZZ 210152Z AUTO 22012KT 14/08 A2992 RMK AO1 SLP115 T01390083





000
SAUS46 KSGX 210153
MTRCZZ
METAR KCZZ 210152Z AUTO 22012KT 14/08 A2992 RMK AO1 SLP115 T01390083





000
SAUS46 KSGX 210053
MTRCZZ
METAR KCZZ 210052Z AUTO 22014KT 16/09 A2991 RMK AO1 SLP110 T01560089





000
SAUS46 KSGX 210053
MTRCZZ
METAR KCZZ 210052Z AUTO 22014KT 16/09 A2991 RMK AO1 SLP110 T01560089





000
SAUS46 KSGX 202353
MTRCZZ
METAR KCZZ 202352Z AUTO 22015KT 17/09 A2991 RMK AO1 SLP112 T01720089
10206 20172 56002





000
SAUS46 KSGX 202353
MTRCZZ
METAR KCZZ 202352Z AUTO 22015KT 17/09 A2991 RMK AO1 SLP112 T01720089
10206 20172 56002





000
SAUS46 KSGX 202253
MTRCZZ
METAR KCZZ 202252Z AUTO 22017KT 18/09 A2991 RMK AO1 SLP112 T01830089





000
SAUS46 KSGX 202153
MTRCZZ
METAR KCZZ 202152Z AUTO 23016KT 20/09 A2992 RMK AO1 SLP111 T02000089





000
SAUS46 KSGX 202053
MTRCZZ
METAR KCZZ 202052Z AUTO 23012G22KT 21/06 A2992 RMK AO1 SLP112
T02060061 58008





000
SAUS46 KSGX 201953
MTRCZZ
METAR KCZZ 201952Z AUTO 22014G19KT 19/06 A2993 RMK AO1 SLP115
T01940061





000
SAUS46 KSGX 201953
MTRCZZ
METAR KCZZ 201952Z AUTO 22014G19KT 19/06 A2993 RMK AO1 SLP115
T01940061





000
SAUS46 KSGX 201853
MTRCZZ
METAR KCZZ 201852Z AUTO 21013KT 18/07 A2994 RMK AO1 SLP121 T01780072





000
SAUS46 KSGX 201753
MTRCZZ
METAR KCZZ 201752Z AUTO 21011KT 17/08 A2994 RMK AO1 SLP121 T01720078
10172 20056 58001





000
SAUS46 KSGX 201753
MTRCZZ
METAR KCZZ 201752Z AUTO 21011KT 17/08 A2994 RMK AO1 SLP121 T01720078
10172 20056 58001





000
SAUS46 KSGX 201653
MTRCZZ
METAR KCZZ 201652Z AUTO 00000KT 15/08 A2994 RMK AO1 SLP120 T01500083





000
SAUS46 KSGX 201553
MTRCZZ
METAR KCZZ 201552Z AUTO 00000KT 12/09 A2995 RMK AO1 SLP125 T01220089





000
SAUS46 KSGX 201453
MTRCZZ
METAR KCZZ 201452Z AUTO 00000KT 10/08 A2995 RMK AO1 SLP124 T01000078
51005





000
SAUS46 KSGX 201453
MTRCZZ
METAR KCZZ 201452Z AUTO 00000KT 10/08 A2995 RMK AO1 SLP124 T01000078
51005





000
SAUS46 KSGX 201353
MTRCZZ
METAR KCZZ 201352Z AUTO 04004KT 07/06 A2994 RMK AO1 SLP121 T00720056
$





000
SAUS46 KSGX 201353
MTRCZZ
METAR KCZZ 201352Z AUTO 04004KT 07/06 A2994 RMK AO1 SLP121 T00720056
$





000
SAUS46 KSGX 201253
MTRCZZ
METAR KCZZ 201252Z AUTO 05003KT 06/04 A2994 RMK AO1 SLP121 T00610044
$





000
SAUS46 KSGX 201253
MTRCZZ
METAR KCZZ 201252Z AUTO 05003KT 06/04 A2994 RMK AO1 SLP121 T00610044
$





000
SAUS46 KSGX 201153
MTRCZZ
METAR KCZZ 201152Z AUTO 06004KT 06/04 A2993 RMK AO1 SLP118 T00560044
10078 20044 56003 $





000
SAUS46 KSGX 201153
MTRCZZ
METAR KCZZ 201152Z AUTO 06004KT 06/04 A2993 RMK AO1 SLP118 T00560044
10078 20044 56003 $





000
SAUS46 KSGX 201053
MTRCZZ
METAR KCZZ 201052Z AUTO 05003KT 04/04 A2993 RMK AO1 SLP119 T00440039
$





000
SAUS46 KSGX 201053
MTRCZZ
METAR KCZZ 201052Z AUTO 05003KT 04/04 A2993 RMK AO1 SLP119 T00440039
$





000
SAUS46 KSGX 200953
MTRCZZ
METAR KCZZ 200952Z AUTO 06004KT 06/05 A2993 RMK AO1 SLPNO T00610050
$





000
SAUS46 KSGX 200853
MTRCZZ
METAR KCZZ 200852Z AUTO 05005KT 06/05 A2994 RMK AO1 SLP120 T00610050
58015 $





000
SAUS46 KSGX 200754
MTRCZZ
METAR KCZZ 200752Z AUTO 05005KT 07/06 A2996 RMK AO1 SLP125 T00670056
402060067 $





000
SAUS46 KSGX 200654
MTRCZZ
METAR KCZZ 200652Z AUTO 04003KT 08/07 A2998 RMK AO1 SLP133 T00780067
$





000
SAUS46 KSGX 200654
MTRCZZ
METAR KCZZ 200652Z AUTO 04003KT 08/07 A2998 RMK AO1 SLP133 T00780067
$





000
SAUS46 KSGX 200554
MTRCZZ
METAR KCZZ 200552Z AUTO 06005KT 08/07 A2999 RMK AO1 SLP138 T00780067
10194 20072 51008 $





000
SAUS46 KSGX 200554
MTRCZZ
METAR KCZZ 200552Z AUTO 06005KT 08/07 A2999 RMK AO1 SLP138 T00780067
10194 20072 51008 $





000
SAUS46 KSGX 200454
MTRCZZ
METAR KCZZ 200452Z AUTO 00000KT 11/08 A2998 RMK AO1 SLP136 T01060083
$





000
SAUS46 KSGX 200354
MTRCZZ
METAR KCZZ 200352Z AUTO 20005KT 11/09 A2997 RMK AO1 SLP132 T01110089
$





000
SAUS46 KSGX 200254
MTRCZZ
METAR KCZZ 200252Z AUTO 20010KT 13/09 A2996 RMK AO1 SLP129 T01280089
53001 $





000
SAUS46 KSGX 200254
MTRCZZ
METAR KCZZ 200252Z AUTO 20010KT 13/09 A2996 RMK AO1 SLP129 T01280089
53001 $





000
SAUS46 KSGX 200153
MTRCZZ
METAR KCZZ 200152Z AUTO 25011KT 17/08 A2995 RMK AO1 SLP122 T01670083
$





000
SAUS46 KSGX 200153
MTRCZZ
METAR KCZZ 200152Z AUTO 25011KT 17/08 A2995 RMK AO1 SLP122 T01670083
$





    US Dept of Commerce
    National Oceanic and Atmospheric Administration
    National Weather Service
    1325 East West Highway
    Silver Spring, MD 20910
    Page Author: NWS Internet Services Team
Disclaimer
Information Quality
Credits
Glossary
Privacy Policy
Freedom of Information Act (FOIA)
About Us
Career Opportunities